createdAt,value
2019-03-15T00:01:42.308Z,2.37
2019-03-15T00:04:11.716Z,2.30
2019-03-15T00:06:41.031Z,2.60
2019-03-15T00:09:10.472Z,2.43
2019-03-15T00:11:39.855Z,2.70
2019-03-15T00:14:09.231Z,2.80
2019-03-15T00:16:38.569Z,2.50
2019-03-15T00:19:07.956Z,2.63
2019-03-15T00:21:37.356Z,2.73
2019-03-15T00:24:06.732Z,2.60
2019-03-15T00:26:36.176Z,2.87
2019-03-15T00:29:05.531Z,2.47
2019-03-15T00:31:34.949Z,2.43
2019-03-15T00:34:04.376Z,2.50
2019-03-15T00:36:33.699Z,2.67
2019-03-15T00:39:03.142Z,3.27
2019-03-15T00:41:32.541Z,3.17
2019-03-15T00:44:01.988Z,3.10
2019-03-15T00:46:31.426Z,2.87
2019-03-15T00:49:00.794Z,3.10
2019-03-15T00:51:30.121Z,3.10
2019-03-15T00:53:59.510Z,3.47
2019-03-15T00:56:28.940Z,2.90
2019-03-15T00:58:58.338Z,3.37
2019-03-15T01:01:27.715Z,2.90
2019-03-15T01:03:57.113Z,3.13
2019-03-15T01:06:26.498Z,3.27
2019-03-15T01:08:55.924Z,3.33
2019-03-15T01:11:25.307Z,3.57
2019-03-15T01:13:54.688Z,3.10
2019-03-15T01:16:24.017Z,3.83
2019-03-15T01:18:53.452Z,3.60
2019-03-15T01:21:22.847Z,3.27
2019-03-15T01:23:52.228Z,3.40
2019-03-15T01:26:21.672Z,3.73
2019-03-15T01:28:51.007Z,3.57
2019-03-15T01:31:20.363Z,3.60
2019-03-15T01:33:50.081Z,3.40
2019-03-15T01:36:19.658Z,3.47
2019-03-15T01:38:49.035Z,3.40
2019-03-15T01:41:18.375Z,3.57
2019-03-15T01:43:47.766Z,3.63
2019-03-15T01:46:17.174Z,3.00
2019-03-15T01:48:46.518Z,3.73
2019-03-15T01:51:15.894Z,3.77
2019-03-15T01:53:45.263Z,3.70
2019-03-15T01:56:14.625Z,3.90
2019-03-15T01:58:44.262Z,3.57
2019-03-15T02:01:13.730Z,3.20
2019-03-15T02:03:43.187Z,3.60
2019-03-15T02:06:12.560Z,3.83
2019-03-15T02:08:41.939Z,3.77
2019-03-15T02:11:11.325Z,3.63
2019-03-15T02:13:40.672Z,4.10
2019-03-15T02:16:10.086Z,3.70
2019-03-15T02:18:39.427Z,4.20
2019-03-15T02:21:08.754Z,4.00
2019-03-15T02:23:38.140Z,4.07
2019-03-15T02:26:07.863Z,4.13
2019-03-15T02:28:37.201Z,4.27
2019-03-15T02:31:06.651Z,3.77
2019-03-15T02:33:35.975Z,4.47
2019-03-15T02:36:05.374Z,4.40
2019-03-15T02:38:34.763Z,4.57
2019-03-15T02:41:05.035Z,4.13
2019-03-15T02:43:34.647Z,4.77
2019-03-15T02:46:04.091Z,4.80
2019-03-15T02:48:33.425Z,4.87
2019-03-15T02:51:02.769Z,4.93
2019-03-15T02:53:32.196Z,5.23
2019-03-15T02:56:01.666Z,5.63
2019-03-15T02:58:31.097Z,5.87
2019-03-15T03:01:00.421Z,5.50
2019-03-15T03:03:29.931Z,6.53
2019-03-15T03:05:59.239Z,6.67
2019-03-15T03:08:28.656Z,6.17
2019-03-15T03:10:58.031Z,5.70
2019-03-15T03:13:27.392Z,6.10
2019-03-15T03:15:56.787Z,6.70
2019-03-15T03:18:26.135Z,6.07
2019-03-15T03:20:55.524Z,6.30
2019-03-15T03:23:24.907Z,6.40
2019-03-15T03:25:54.389Z,6.60
2019-03-15T03:28:23.727Z,6.87
2019-03-15T03:30:53.047Z,8.23
2019-03-15T03:33:22.409Z,7.47
2019-03-15T03:35:51.797Z,7.20
2019-03-15T03:38:21.212Z,7.87
2019-03-15T03:40:50.552Z,7.67
2019-03-15T03:43:19.970Z,8.40
2019-03-15T03:45:49.364Z,8.07
2019-03-15T03:48:18.823Z,8.37
2019-03-15T03:50:48.204Z,7.60
2019-03-15T03:53:17.708Z,8.10
2019-03-15T03:55:47.029Z,8.73
2019-03-15T03:58:16.383Z,8.33
2019-03-15T04:00:45.825Z,9.10
2019-03-15T04:03:15.494Z,8.23
2019-03-15T04:05:45.108Z,8.60
2019-03-15T04:08:14.736Z,8.73
2019-03-15T04:10:44.049Z,9.90
2019-03-15T04:13:13.414Z,9.10
2019-03-15T04:15:42.837Z,9.00
2019-03-15T04:18:12.412Z,8.70
2019-03-15T04:20:42.475Z,8.97
2019-03-15T04:23:11.976Z,8.40
2019-03-15T04:25:41.282Z,8.47
2019-03-15T04:28:10.630Z,8.73
2019-03-15T04:30:40.072Z,7.93
2019-03-15T04:33:09.456Z,8.30
2019-03-15T04:35:38.914Z,8.80
2019-03-15T04:38:08.254Z,8.17
2019-03-15T04:40:37.661Z,8.53
2019-03-15T04:43:07.029Z,8.13
2019-03-15T04:45:36.462Z,9.47
2019-03-15T04:48:05.763Z,9.40
2019-03-15T04:50:35.125Z,9.23
2019-03-15T04:53:04.620Z,10.20
2019-03-15T04:55:34.010Z,11.13
2019-03-15T04:58:03.505Z,11.73
2019-03-15T05:00:32.787Z,10.83
2019-03-15T05:03:02.196Z,10.93
2019-03-15T05:05:31.667Z,11.50
2019-03-15T05:08:01.116Z,11.83
2019-03-15T05:10:30.495Z,12.03
2019-03-15T05:12:59.895Z,11.87
2019-03-15T05:15:29.368Z,11.07
2019-03-15T05:17:58.872Z,11.40
2019-03-15T05:20:28.460Z,11.97
2019-03-15T05:22:57.827Z,10.90
2019-03-15T05:25:29.675Z,12.37
2019-03-15T05:27:58.513Z,11.23
2019-03-15T05:30:27.837Z,11.43
2019-03-15T05:32:57.261Z,12.00
2019-03-15T05:35:26.653Z,11.60
2019-03-15T05:37:56.030Z,12.47
2019-03-15T05:40:25.344Z,11.33
2019-03-15T05:42:54.815Z,11.87
2019-03-15T05:45:24.234Z,11.30
2019-03-15T05:47:53.640Z,12.13
2019-03-15T05:50:23.004Z,12.60
2019-03-15T05:52:52.390Z,11.90
2019-03-15T05:55:21.784Z,11.67
2019-03-15T05:57:51.163Z,11.70
2019-03-15T06:00:20.650Z,12.73
2019-03-15T06:02:49.998Z,12.57
2019-03-15T06:05:19.371Z,12.17
2019-03-15T06:07:48.942Z,12.80
2019-03-15T06:10:18.353Z,11.67
2019-03-15T06:12:47.799Z,11.83
2019-03-15T06:15:17.172Z,12.20
2019-03-15T06:17:46.602Z,11.60
2019-03-15T06:20:15.995Z,11.60
2019-03-15T06:22:45.386Z,12.43
2019-03-15T06:25:14.739Z,11.83
2019-03-15T06:27:44.147Z,11.13
2019-03-15T06:30:13.554Z,10.53
2019-03-15T06:32:42.929Z,11.00
2019-03-15T06:35:12.552Z,11.37
2019-03-15T06:37:42.028Z,10.77
2019-03-15T06:40:13.643Z,11.33
2019-03-15T06:42:43.053Z,11.27
2019-03-15T06:45:12.679Z,10.63
2019-03-15T06:47:42.039Z,10.70
2019-03-15T06:50:11.827Z,11.57
2019-03-15T06:52:41.244Z,10.83
2019-03-15T06:55:10.806Z,10.60
2019-03-15T06:57:40.236Z,10.77
2019-03-15T07:00:10.048Z,10.50
2019-03-15T07:02:39.405Z,9.27
2019-03-15T07:05:11.873Z,10.30
2019-03-15T07:07:40.263Z,10.17
2019-03-15T07:10:09.815Z,9.23
2019-03-15T07:12:40.395Z,10.30
2019-03-15T07:15:10.436Z,9.37
2019-03-15T07:17:39.831Z,10.23
2019-03-15T07:20:09.879Z,9.03
2019-03-15T07:22:39.294Z,9.47
2019-03-15T07:25:09.026Z,9.37
2019-03-15T07:27:38.372Z,8.83
2019-03-15T07:30:09.043Z,9.03
2019-03-15T07:32:38.608Z,9.30
2019-03-15T07:35:07.928Z,8.60
2019-03-15T07:37:37.334Z,8.13
2019-03-15T07:40:07.272Z,8.43
2019-03-15T07:42:36.649Z,8.37
2019-03-15T07:45:06.326Z,8.53
2019-03-15T07:47:35.780Z,8.50
2019-03-15T07:50:05.642Z,8.87
2019-03-15T07:52:35.124Z,8.50
2019-03-15T07:55:04.686Z,8.23
2019-03-15T07:57:34.072Z,8.30
2019-03-15T08:00:03.547Z,7.33
2019-03-15T08:02:33.209Z,6.93
2019-03-15T08:05:02.534Z,7.77
2019-03-15T08:07:36.553Z,7.93
2019-03-15T08:10:03.432Z,7.63
2019-03-15T08:12:33.280Z,7.90
2019-03-15T08:15:02.660Z,7.23
2019-03-15T08:17:32.592Z,7.03
2019-03-15T08:20:02.230Z,6.97
2019-03-15T08:22:31.762Z,6.50
2019-03-15T08:25:01.158Z,6.37
2019-03-15T08:27:30.516Z,6.30
2019-03-15T08:30:00.405Z,6.33
2019-03-15T08:32:29.834Z,5.30
2019-03-15T08:34:59.163Z,5.73
2019-03-15T08:37:28.524Z,5.67
2019-03-15T08:39:57.890Z,5.60
2019-03-15T08:42:27.250Z,5.73
2019-03-15T08:44:56.667Z,5.90
2019-03-15T08:47:26.023Z,5.23
2019-03-15T08:49:55.417Z,5.73
2019-03-15T08:52:24.753Z,5.47
2019-03-15T08:55:04.710Z,5.10
2019-03-15T08:57:25.422Z,5.13
2019-03-15T08:59:57.761Z,4.97
2019-03-15T09:02:26.543Z,5.10
2019-03-15T09:04:55.923Z,8.13
2019-03-15T09:07:25.275Z,5.03
2019-03-15T09:09:54.682Z,4.63
2019-03-15T09:12:25.187Z,5.03
2019-03-15T09:14:54.684Z,4.57
2019-03-15T09:17:24.118Z,4.77
2019-03-15T09:19:53.589Z,4.90
2019-03-15T09:22:22.942Z,4.50
2019-03-15T09:24:52.346Z,4.67
2019-03-15T09:27:21.875Z,4.60
2019-03-15T09:29:51.266Z,4.03
2019-03-15T09:32:20.639Z,4.13
2019-03-15T09:34:50.017Z,3.57
2019-03-15T09:37:19.492Z,3.70
2019-03-15T09:39:49.045Z,4.67
2019-03-15T09:42:18.490Z,3.90
2019-03-15T09:44:47.886Z,3.37
2019-03-15T09:47:17.304Z,3.70
2019-03-15T09:49:46.676Z,3.47
2019-03-15T09:52:16.129Z,3.67
2019-03-15T09:54:45.600Z,3.60
2019-03-15T09:57:14.983Z,3.33
2019-03-15T09:59:44.417Z,4.33
2019-03-15T10:02:13.765Z,3.10
2019-03-15T10:04:43.302Z,3.13
2019-03-15T10:07:12.832Z,2.67
2019-03-15T10:09:46.226Z,2.53
2019-03-15T10:12:13.278Z,3.00
2019-03-15T10:14:42.712Z,2.50
2019-03-15T10:17:12.094Z,1.90
2019-03-15T10:19:41.583Z,1.90
2019-03-15T10:22:10.957Z,1.73
2019-03-15T10:24:40.300Z,2.23
2019-03-15T10:27:09.653Z,1.80
2019-03-15T10:29:39.069Z,1.70
2019-03-15T10:32:08.443Z,1.70
2019-03-15T10:34:37.809Z,1.87
2019-03-15T10:37:07.224Z,1.60
2019-03-15T10:39:36.666Z,1.90
2019-03-15T10:42:06.108Z,1.73
2019-03-15T10:44:35.513Z,1.70
2019-03-15T10:47:04.929Z,1.70
2019-03-15T10:49:34.546Z,2.20
2019-03-15T10:52:04.006Z,2.60
2019-03-15T10:54:33.455Z,1.93
2019-03-15T10:57:02.921Z,2.17
2019-03-15T10:59:32.360Z,2.40
2019-03-15T11:02:01.966Z,2.40
2019-03-15T11:04:31.359Z,1.90
2019-03-15T11:07:00.794Z,2.30
2019-03-15T11:09:30.127Z,2.40
2019-03-15T11:11:59.582Z,1.73
2019-03-15T11:14:28.979Z,1.27
2019-03-15T11:16:58.369Z,1.13
2019-03-15T11:19:27.869Z,1.30
2019-03-15T11:21:57.225Z,1.20
2019-03-15T11:24:26.588Z,1.30
2019-03-15T11:26:56.056Z,0.93
2019-03-15T11:29:25.436Z,1.17
2019-03-15T11:31:54.781Z,1.30
2019-03-15T11:34:24.282Z,1.27
2019-03-15T11:36:58.566Z,1.57
2019-03-15T11:39:24.694Z,1.40
2019-03-15T11:41:54.083Z,1.30
2019-03-15T11:44:23.448Z,1.20
2019-03-15T11:46:53.074Z,1.50
2019-03-15T11:49:22.576Z,1.53
2019-03-15T11:51:51.995Z,1.33
2019-03-15T11:54:21.360Z,1.80
2019-03-15T11:56:51.057Z,1.70
2019-03-15T11:59:20.339Z,1.80
2019-03-15T12:02:03.170Z,1.87
2019-03-15T12:04:20.736Z,1.80
2019-03-15T12:06:50.220Z,1.90
2019-03-15T12:09:19.733Z,1.90
2019-03-15T12:11:49.079Z,2.30
2019-03-15T12:14:18.733Z,2.30
2019-03-15T12:16:48.422Z,3.53
2019-03-15T12:19:17.923Z,2.00
2019-03-15T12:21:47.529Z,2.47
2019-03-15T12:24:17.057Z,2.50
2019-03-15T12:26:46.595Z,2.17
2019-03-15T12:29:15.966Z,2.00
2019-03-15T12:31:45.524Z,2.10
2019-03-15T12:34:14.945Z,1.90
2019-03-15T12:36:44.357Z,1.93
2019-03-15T12:39:13.714Z,2.10
2019-03-15T12:41:43.092Z,2.10
2019-03-15T12:44:12.599Z,1.83
2019-03-15T12:46:41.926Z,2.30
2019-03-15T12:49:11.362Z,1.90
2019-03-15T12:51:40.767Z,2.13
2019-03-15T12:54:10.236Z,1.70
2019-03-15T12:56:52.945Z,1.83
2019-03-15T12:59:10.952Z,2.00
2019-03-15T13:01:40.417Z,1.70
2019-03-15T13:04:09.850Z,1.70
2019-03-15T13:06:39.393Z,1.37
2019-03-15T13:09:08.765Z,1.50
2019-03-15T13:11:38.222Z,1.13
2019-03-15T13:14:07.807Z,1.30
2019-03-15T13:16:37.151Z,1.13
2019-03-15T13:19:06.514Z,1.30
2019-03-15T13:21:35.902Z,1.50
2019-03-15T13:24:05.281Z,1.30
2019-03-15T13:26:34.679Z,1.20
2019-03-15T13:29:04.234Z,1.40
2019-03-15T13:31:33.759Z,1.20
2019-03-15T13:34:03.150Z,1.10
2019-03-15T13:36:32.684Z,1.40
2019-03-15T13:39:02.113Z,1.50
2019-03-15T13:41:31.520Z,1.30
2019-03-15T13:44:00.881Z,1.50
2019-03-15T13:46:30.245Z,1.60
2019-03-15T13:48:59.600Z,1.60
2019-03-15T13:51:29.152Z,1.80
2019-03-15T13:53:58.582Z,1.73
2019-03-15T13:56:27.970Z,1.70
2019-03-15T13:58:57.781Z,1.90
2019-03-15T14:01:27.199Z,1.80
2019-03-15T14:03:56.662Z,1.90
2019-03-15T14:06:26.188Z,1.90
2019-03-15T14:08:55.645Z,1.97
2019-03-15T14:11:25.024Z,1.70
2019-03-15T14:13:54.571Z,1.63
2019-03-15T14:16:23.958Z,1.90
2019-03-15T14:18:53.400Z,1.90
2019-03-15T14:21:22.756Z,1.97
2019-03-15T14:23:52.177Z,2.10
2019-03-15T14:26:21.651Z,1.90
2019-03-15T14:28:51.108Z,1.83
2019-03-15T14:31:21.743Z,1.93
2019-03-15T14:33:51.319Z,2.13
2019-03-15T14:36:20.619Z,1.57
2019-03-15T14:38:50.099Z,1.50
2019-03-15T14:41:19.575Z,1.73
2019-03-15T14:43:49.202Z,1.30
2019-03-15T14:46:18.617Z,1.20
2019-03-15T14:48:48.018Z,1.30
2019-03-15T14:51:17.386Z,1.17
2019-03-15T14:53:46.858Z,1.40
2019-03-15T14:56:16.211Z,1.47
2019-03-15T14:58:45.567Z,1.03
2019-03-15T15:01:14.919Z,1.20
2019-03-15T15:03:44.346Z,1.50
2019-03-15T15:06:13.874Z,1.30
2019-03-15T15:08:43.228Z,1.30
2019-03-15T15:11:12.753Z,1.30
2019-03-15T15:13:42.353Z,1.63
2019-03-15T15:16:11.705Z,1.30
2019-03-15T15:18:41.110Z,1.50
2019-03-15T15:21:10.529Z,1.40
2019-03-15T15:23:39.968Z,1.40
2019-03-15T15:26:09.378Z,1.47
2019-03-15T15:28:39.617Z,1.30
2019-03-15T15:31:09.015Z,1.40
2019-03-15T15:33:38.402Z,1.47
2019-03-15T15:36:07.793Z,2.37
2019-03-15T15:38:37.251Z,1.63
2019-03-15T15:41:06.627Z,2.10
2019-03-15T15:43:36.118Z,1.80
2019-03-15T15:46:05.540Z,1.53
2019-03-15T15:48:35.095Z,1.87
2019-03-15T15:51:04.454Z,1.90
2019-03-15T15:53:33.890Z,1.87
2019-03-15T15:56:03.434Z,1.90
2019-03-15T15:58:32.857Z,2.20
2019-03-15T16:01:02.266Z,2.20
2019-03-15T16:03:31.674Z,2.60
2019-03-15T16:06:01.316Z,1.97
2019-03-15T16:08:30.946Z,2.30
2019-03-15T16:11:00.379Z,1.93
2019-03-15T16:13:29.720Z,2.00
2019-03-15T16:15:59.146Z,1.93
2019-03-15T16:18:28.593Z,1.73
2019-03-15T16:20:57.927Z,1.70
2019-03-15T16:23:30.180Z,2.07
2019-03-15T16:25:58.662Z,2.50
2019-03-15T16:28:31.839Z,1.73
2019-03-15T16:30:59.267Z,2.03
2019-03-15T16:33:28.637Z,1.80
2019-03-15T16:35:58.142Z,1.80
2019-03-15T16:38:27.591Z,1.60
2019-03-15T16:40:57.003Z,1.37
2019-03-15T16:43:26.436Z,1.53
2019-03-15T16:45:55.850Z,1.80
2019-03-15T16:48:25.338Z,2.17
2019-03-15T16:50:54.730Z,1.80
2019-03-15T16:53:24.207Z,3.20
2019-03-15T16:55:53.793Z,3.40
2019-03-15T16:58:23.174Z,2.17
2019-03-15T17:00:52.400Z,2.13
2019-03-15T17:03:21.875Z,2.70
2019-03-15T17:05:51.446Z,2.40
2019-03-15T17:08:20.860Z,2.60
2019-03-15T17:10:50.322Z,2.47
2019-03-15T17:13:19.689Z,2.37
2019-03-15T17:15:49.063Z,2.33
2019-03-15T17:18:18.425Z,2.13
2019-03-15T17:20:47.819Z,2.67
2019-03-15T17:23:17.416Z,2.67
2019-03-15T17:25:46.825Z,2.60
2019-03-15T17:28:16.318Z,3.03
2019-03-15T17:30:45.861Z,5.77
2019-03-15T17:33:15.460Z,3.90
2019-03-15T17:35:44.980Z,1.80
2019-03-15T17:38:14.356Z,2.10
2019-03-15T17:40:43.819Z,2.53
2019-03-15T17:43:13.266Z,2.27
2019-03-15T17:45:42.692Z,2.20
2019-03-15T17:48:12.108Z,2.43
2019-03-15T17:50:41.609Z,1.63
2019-03-15T17:53:11.316Z,1.70
2019-03-15T17:55:40.925Z,1.90
2019-03-15T17:58:10.330Z,2.30
2019-03-15T18:00:42.129Z,2.70
2019-03-15T18:03:20.490Z,2.83
2019-03-15T18:05:42.868Z,2.70
2019-03-15T18:08:12.325Z,2.37
2019-03-15T18:10:41.940Z,2.47
2019-03-15T18:13:11.401Z,2.13
2019-03-15T18:15:40.893Z,2.40
2019-03-15T18:18:10.437Z,2.00
2019-03-15T18:20:39.922Z,2.80
2019-03-15T18:23:09.268Z,2.50
2019-03-15T18:25:38.742Z,3.47
2019-03-15T18:28:08.241Z,3.10
2019-03-15T18:30:37.593Z,5.60
2019-03-15T18:33:07.296Z,4.33
2019-03-15T18:35:36.670Z,5.17
2019-03-15T18:38:06.193Z,3.20
2019-03-15T18:40:35.834Z,2.30
2019-03-15T18:43:05.239Z,1.90
2019-03-15T18:45:34.605Z,1.90
2019-03-15T18:48:04.007Z,1.90
2019-03-15T18:50:33.395Z,1.97
2019-03-15T18:53:02.805Z,2.40
2019-03-15T18:55:32.445Z,2.50
2019-03-15T18:58:01.807Z,2.63
2019-03-15T19:00:31.157Z,2.97
2019-03-15T19:03:00.833Z,2.80
2019-03-15T19:05:30.234Z,2.40
2019-03-15T19:07:59.707Z,2.40
2019-03-15T19:10:29.117Z,2.23
2019-03-15T19:12:58.504Z,1.90
2019-03-15T19:15:27.985Z,2.07
2019-03-15T19:17:57.403Z,2.03
2019-03-15T19:20:26.913Z,2.30
2019-03-15T19:22:56.260Z,1.70
2019-03-15T19:25:25.625Z,2.63
2019-03-15T19:27:55.134Z,2.00
2019-03-15T19:30:24.493Z,2.70
2019-03-15T19:32:53.979Z,2.10
2019-03-15T19:35:23.429Z,2.27
2019-03-15T19:37:52.819Z,2.00
2019-03-15T19:40:22.209Z,2.43
2019-03-15T19:42:51.712Z,2.60
2019-03-15T19:45:21.169Z,3.00
2019-03-15T19:47:50.618Z,2.60
2019-03-15T19:50:20.040Z,1.97
2019-03-15T19:52:49.462Z,2.57
2019-03-15T19:55:18.839Z,2.77
2019-03-15T19:57:48.403Z,3.13
2019-03-15T20:00:17.911Z,3.17
2019-03-15T20:02:48.642Z,4.17
2019-03-15T20:05:18.129Z,2.73
2019-03-15T20:07:47.677Z,2.13
2019-03-15T20:10:17.543Z,1.77
2019-03-15T20:12:46.910Z,1.60
2019-03-15T20:15:16.445Z,1.70
2019-03-15T20:17:45.886Z,2.60
2019-03-15T20:20:15.463Z,2.50
2019-03-15T20:22:44.978Z,2.97
2019-03-15T20:25:17.973Z,3.20
2019-03-15T20:27:47.435Z,4.03
2019-03-15T20:30:21.486Z,3.03
2019-03-15T20:32:48.362Z,2.30
2019-03-15T20:35:17.689Z,2.77
2019-03-15T20:37:48.519Z,2.70
2019-03-15T20:40:17.876Z,2.13
2019-03-15T20:42:47.193Z,2.23
2019-03-15T20:45:16.863Z,2.50
2019-03-15T20:47:46.264Z,2.10
2019-03-15T20:50:15.999Z,1.93
2019-03-15T20:52:45.470Z,2.30
2019-03-15T20:55:15.285Z,2.23
2019-03-15T20:57:44.853Z,2.27
2019-03-15T21:00:15.157Z,2.20
2019-03-15T21:02:44.535Z,2.40
2019-03-15T21:05:13.938Z,2.30
2019-03-15T21:07:44.173Z,2.50
2019-03-15T21:10:13.736Z,2.13
2019-03-15T21:12:45.246Z,2.70
2019-03-15T21:15:14.638Z,2.60
2019-03-15T21:17:44.044Z,2.47
2019-03-15T21:20:14.041Z,2.43
2019-03-15T21:22:43.834Z,2.17
2019-03-15T21:25:13.283Z,2.50
2019-03-15T21:27:53.016Z,3.93
2019-03-15T21:30:15.107Z,2.30
2019-03-15T21:32:44.590Z,2.10
2019-03-15T21:35:14.103Z,2.27
2019-03-15T21:37:43.502Z,2.03
2019-03-15T21:40:12.876Z,1.90
2019-03-15T21:42:42.288Z,2.40
2019-03-15T21:45:11.864Z,2.30
2019-03-15T21:47:41.295Z,2.57
2019-03-15T21:50:12.003Z,2.50
2019-03-15T21:52:41.402Z,4.60
2019-03-15T21:55:10.804Z,3.60
2019-03-15T21:57:40.251Z,3.00
2019-03-15T22:00:11.079Z,3.73
2019-03-15T22:02:40.470Z,5.03
2019-03-15T22:05:10.041Z,4.93
2019-03-15T22:07:39.528Z,3.20
2019-03-15T22:10:09.804Z,2.80
2019-03-15T22:12:39.303Z,2.60
2019-03-15T22:15:08.803Z,3.50
2019-03-15T22:17:38.402Z,4.60
2019-03-15T22:20:09.260Z,4.93
2019-03-15T22:22:38.600Z,5.03
2019-03-15T22:25:08.005Z,3.77
2019-03-15T22:27:37.509Z,4.23
2019-03-15T22:30:06.893Z,4.67
2019-03-15T22:32:36.266Z,4.93
2019-03-15T22:35:05.944Z,4.70
2019-03-15T22:37:35.311Z,5.30
2019-03-15T22:40:04.852Z,5.53
2019-03-15T22:42:34.239Z,5.40
2019-03-15T22:45:03.598Z,5.70
2019-03-15T22:47:33.043Z,4.80
2019-03-15T22:50:02.415Z,4.77
2019-03-15T22:52:31.769Z,4.57
2019-03-15T22:55:01.153Z,4.23
2019-03-15T22:57:30.513Z,3.70
2019-03-15T22:59:59.899Z,3.00
2019-03-15T23:02:29.358Z,1.93
2019-03-15T23:04:58.707Z,2.07
2019-03-15T23:07:28.094Z,1.97
2019-03-15T23:09:57.454Z,1.90
2019-03-15T23:12:26.848Z,2.10
2019-03-15T23:14:56.329Z,1.90
2019-03-15T23:17:25.738Z,2.87
2019-03-15T23:19:55.078Z,3.17
2019-03-15T23:22:24.515Z,3.33
2019-03-15T23:24:53.920Z,3.40
2019-03-15T23:27:23.381Z,3.60
2019-03-15T23:29:52.808Z,3.60
2019-03-15T23:32:22.220Z,3.70
2019-03-15T23:34:51.686Z,3.63
2019-03-15T23:37:21.256Z,3.47
2019-03-15T23:39:50.716Z,3.20
2019-03-15T23:42:20.047Z,3.40
2019-03-15T23:44:49.468Z,2.43
2019-03-15T23:47:18.852Z,2.30
2019-03-15T23:49:48.253Z,3.37
2019-03-15T23:52:17.616Z,3.77
2019-03-15T23:54:46.963Z,4.00
2019-03-15T23:57:16.335Z,4.40
2019-03-15T23:59:45.680Z,3.97
